createdAt,value
2023-05-06T00:00:10.217Z,96.12
2023-05-06T00:01:10.234Z,96.02
2023-05-06T00:02:10.201Z,96.12
2023-05-06T00:03:10.301Z,96.02
2023-05-06T00:04:10.169Z,96.02
2023-05-06T00:05:10.328Z,96.02
2023-05-06T00:06:10.145Z,96.02
2023-05-06T00:07:10.115Z,96.02
2023-05-06T00:08:10.122Z,96.02
2023-05-06T00:09:10.122Z,96.17
2023-05-06T00:10:10.135Z,96.33
2023-05-06T00:11:10.091Z,96.47
2023-05-06T00:12:10.090Z,96.58
2023-05-06T00:13:10.129Z,96.68
2023-05-06T00:14:10.056Z,96.68
2023-05-06T00:15:10.237Z,96.88
2023-05-06T00:16:10.092Z,97.29
2023-05-06T00:17:10.053Z,97.49
2023-05-06T00:18:10.085Z,97.60
2023-05-06T00:19:10.043Z,97.84
2023-05-06T00:20:10.017Z,97.84
2023-05-06T00:21:10.094Z,97.74
2023-05-06T00:22:09.977Z,97.84
2023-05-06T00:23:09.967Z,97.94
2023-05-06T00:24:10.025Z,97.94
2023-05-06T00:25:10.258Z,97.94
2023-05-06T00:26:09.996Z,97.94
2023-05-06T00:27:09.941Z,97.94
2023-05-06T00:28:10.062Z,97.84
2023-05-06T00:29:09.933Z,97.84
2023-05-06T00:30:09.891Z,97.84
2023-05-06T00:31:09.868Z,97.94
2023-05-06T00:32:09.934Z,97.74
2023-05-06T00:33:09.987Z,97.74
2023-05-06T00:34:09.848Z,97.44
2023-05-06T00:35:10.163Z,97.03
2023-05-06T00:36:09.839Z,96.72
2023-05-06T00:37:09.979Z,96.62
2023-05-06T00:38:09.836Z,96.42
2023-05-06T00:39:09.868Z,96.31
2023-05-06T00:40:09.801Z,96.01
2023-05-06T00:41:09.783Z,95.61
2023-05-06T00:42:09.805Z,95.61
2023-05-06T00:43:09.804Z,95.50
2023-05-06T00:44:09.749Z,95.61
2023-05-06T00:45:09.965Z,95.61
2023-05-06T00:46:09.775Z,95.75
2023-05-06T00:47:09.717Z,95.75
2023-05-06T00:48:10.534Z,95.75
2023-05-06T00:49:09.766Z,95.75
2023-05-06T00:50:09.705Z,95.65
2023-05-06T00:51:09.752Z,95.65
2023-05-06T00:52:09.662Z,95.65
2023-05-06T00:53:09.666Z,95.54
2023-05-06T00:54:09.656Z,95.45
2023-05-06T00:55:09.988Z,95.54
2023-05-06T00:56:09.879Z,95.45
2023-05-06T00:57:09.629Z,95.34
2023-05-06T00:58:09.615Z,95.34
2023-05-06T00:59:09.665Z,95.45
2023-05-06T01:00:09.622Z,95.54
2023-05-06T01:01:09.825Z,95.34
2023-05-06T01:02:09.636Z,95.34
2023-05-06T01:03:09.666Z,95.34
2023-05-06T01:04:09.556Z,95.34
2023-05-06T01:05:09.821Z,95.45
2023-05-06T01:06:09.532Z,95.45
2023-05-06T01:07:09.530Z,95.54
2023-05-06T01:08:09.502Z,95.54
2023-05-06T01:09:09.506Z,95.65
2023-05-06T01:10:09.485Z,95.75
2023-05-06T01:11:09.512Z,95.85
2023-05-06T01:12:09.458Z,95.75
2023-05-06T01:13:09.512Z,95.65
2023-05-06T01:14:09.455Z,95.65
2023-05-06T01:15:09.681Z,95.75
2023-05-06T01:16:09.417Z,95.75
2023-05-06T01:17:09.552Z,95.75
2023-05-06T01:18:09.528Z,95.85
2023-05-06T01:19:09.423Z,95.75
2023-05-06T01:20:09.405Z,95.54
2023-05-06T01:21:09.419Z,95.45
2023-05-06T01:22:09.346Z,95.45
2023-05-06T01:23:09.362Z,95.45
2023-05-06T01:24:09.327Z,95.24
2023-05-06T01:25:09.691Z,95.04
2023-05-06T01:26:09.323Z,94.98
2023-05-06T01:27:09.319Z,94.78
2023-05-06T01:28:09.312Z,94.88
2023-05-06T01:29:09.302Z,94.98
2023-05-06T01:30:09.283Z,95.08
2023-05-06T01:31:09.396Z,95.18
2023-05-06T01:32:09.239Z,94.98
2023-05-06T01:33:09.257Z,94.98
2023-05-06T01:34:09.271Z,94.98
2023-05-06T01:35:09.384Z,94.88
2023-05-06T01:36:09.248Z,94.78
2023-05-06T01:37:09.225Z,94.78
2023-05-06T01:38:09.188Z,94.78
2023-05-06T01:39:09.211Z,94.78
2023-05-06T01:40:09.186Z,94.78
2023-05-06T01:41:09.163Z,94.78
2023-05-06T01:42:09.149Z,94.47
2023-05-06T01:43:09.149Z,94.27
2023-05-06T01:44:09.134Z,94.27
2023-05-06T01:45:09.318Z,94.17
2023-05-06T01:46:09.184Z,94.07
2023-05-06T01:47:09.182Z,94.07
2023-05-06T01:48:09.127Z,94.07
2023-05-06T01:49:09.092Z,93.86
2023-05-06T01:50:09.088Z,93.76
2023-05-06T01:51:09.105Z,93.66
2023-05-06T01:52:09.046Z,93.66
2023-05-06T01:53:09.036Z,93.55
2023-05-06T01:54:09.029Z,93.45
2023-05-06T01:55:09.320Z,93.45
2023-05-06T01:56:09.032Z,93.45
2023-05-06T01:57:09.023Z,93.45
2023-05-06T01:58:08.984Z,93.45
2023-05-06T01:59:08.973Z,93.45
2023-05-06T02:00:08.980Z,93.50
2023-05-06T02:01:08.962Z,93.50
2023-05-06T02:02:09.067Z,93.50
2023-05-06T02:03:09.045Z,93.45
2023-05-06T02:04:08.989Z,93.40
2023-05-06T02:05:09.199Z,93.29
2023-05-06T02:06:08.923Z,93.09
2023-05-06T02:07:08.872Z,93.09
2023-05-06T02:08:08.895Z,93.09
2023-05-06T02:09:08.904Z,93.09
2023-05-06T02:10:08.887Z,93.19
2023-05-06T02:11:08.861Z,93.40
2023-05-06T02:12:08.856Z,93.50
2023-05-06T02:13:08.908Z,93.50
2023-05-06T02:14:08.833Z,93.50
2023-05-06T02:15:08.920Z,93.50
2023-05-06T02:16:08.981Z,93.40
2023-05-06T02:17:08.823Z,93.19
2023-05-06T02:18:08.809Z,93.29
2023-05-06T02:19:08.791Z,93.29
2023-05-06T02:20:08.750Z,93.40
2023-05-06T02:21:08.734Z,93.50
2023-05-06T02:22:08.727Z,93.50
2023-05-06T02:23:08.723Z,93.64
2023-05-06T02:24:08.751Z,93.54
2023-05-06T02:25:08.879Z,93.64
2023-05-06T02:26:08.728Z,93.54
2023-05-06T02:27:08.694Z,93.74
2023-05-06T02:28:08.678Z,93.85
2023-05-06T02:29:08.675Z,94.15
2023-05-06T02:30:08.656Z,94.40
2023-05-06T02:31:08.725Z,94.50
2023-05-06T02:32:08.626Z,94.50
2023-05-06T02:33:08.622Z,94.50
2023-05-06T02:34:08.607Z,94.50
2023-05-06T02:35:08.978Z,94.60
2023-05-06T02:36:08.649Z,94.81
2023-05-06T02:37:08.632Z,94.81
2023-05-06T02:38:08.589Z,94.91
2023-05-06T02:39:08.573Z,94.91
2023-05-06T02:40:08.629Z,94.91
2023-05-06T02:41:08.558Z,95.01
2023-05-06T02:42:08.531Z,95.01
2023-05-06T02:43:08.561Z,94.91
2023-05-06T02:44:08.566Z,94.60
2023-05-06T02:45:08.751Z,94.50
2023-05-06T02:46:08.622Z,94.50
2023-05-06T02:47:08.605Z,94.40
2023-05-06T02:48:08.473Z,94.50
2023-05-06T02:49:08.477Z,94.50
2023-05-06T02:50:08.463Z,94.50
2023-05-06T02:51:08.439Z,94.60
2023-05-06T02:52:08.458Z,94.50
2023-05-06T02:53:08.401Z,94.50
2023-05-06T02:54:08.418Z,94.50
2023-05-06T02:55:08.610Z,94.40
2023-05-06T02:56:08.440Z,94.40
2023-05-06T02:57:08.420Z,94.40
2023-05-06T02:58:08.387Z,94.40
2023-05-06T02:59:08.390Z,94.50
2023-05-06T03:00:08.363Z,94.60
2023-05-06T03:01:08.407Z,94.71
2023-05-06T03:02:08.319Z,94.95
2023-05-06T03:03:08.419Z,95.16
2023-05-06T03:04:08.330Z,95.36
2023-05-06T03:05:08.581Z,95.57
2023-05-06T03:06:08.292Z,95.67
2023-05-06T03:07:08.282Z,95.77
2023-05-06T03:08:08.295Z,95.97
2023-05-06T03:09:08.243Z,96.08
2023-05-06T03:10:08.241Z,96.18
2023-05-06T03:11:08.462Z,96.28
2023-05-06T03:12:08.224Z,96.38
2023-05-06T03:13:08.358Z,96.48
2023-05-06T03:14:08.210Z,96.59
2023-05-06T03:15:08.344Z,96.69
2023-05-06T03:16:08.223Z,96.69
2023-05-06T03:17:08.161Z,96.69
2023-05-06T03:18:08.251Z,96.94
2023-05-06T03:19:09.076Z,96.94
2023-05-06T03:20:08.199Z,97.04
2023-05-06T03:21:08.140Z,97.04
2023-05-06T03:22:08.126Z,97.14
2023-05-06T03:23:08.124Z,97.14
2023-05-06T03:24:08.106Z,97.24
2023-05-06T03:25:08.389Z,97.24
2023-05-06T03:26:08.064Z,97.24
2023-05-06T03:27:08.159Z,97.24
2023-05-06T03:28:08.594Z,97.24
2023-05-06T03:29:08.065Z,97.24
2023-05-06T03:30:08.047Z,97.24
2023-05-06T03:31:08.047Z,97.24
2023-05-06T03:32:08.031Z,97.24
2023-05-06T03:33:08.071Z,97.24
2023-05-06T03:34:08.016Z,97.14
2023-05-06T03:35:08.200Z,97.14
2023-05-06T03:36:07.978Z,97.04
2023-05-06T03:37:07.961Z,96.94
2023-05-06T03:38:07.972Z,96.94
2023-05-06T03:39:07.941Z,96.94
2023-05-06T03:40:07.928Z,96.94
2023-05-06T03:41:07.917Z,96.94
2023-05-06T03:42:09.741Z,97.14
2023-05-06T03:43:07.967Z,97.24
2023-05-06T03:44:07.892Z,97.34
2023-05-06T03:45:09.102Z,97.45
2023-05-06T03:46:07.898Z,97.45
2023-05-06T03:47:07.850Z,97.45
2023-05-06T03:48:07.921Z,97.55
2023-05-06T03:49:07.882Z,97.65
2023-05-06T03:50:07.848Z,97.65
2023-05-06T03:51:07.841Z,97.75
2023-05-06T03:52:07.852Z,97.75
2023-05-06T03:53:07.832Z,97.86
2023-05-06T03:54:07.820Z,97.96
2023-05-06T03:55:07.944Z,97.96
2023-05-06T03:56:07.753Z,98.06
2023-05-06T03:57:07.765Z,98.16
2023-05-06T03:58:07.760Z,98.36
2023-05-06T03:59:07.752Z,98.36
2023-05-06T04:00:07.741Z,98.36
2023-05-06T04:01:07.724Z,98.47
2023-05-06T04:02:07.755Z,98.57
2023-05-06T04:03:07.774Z,98.47
2023-05-06T04:04:09.702Z,98.47
2023-05-06T04:05:08.048Z,98.36
2023-05-06T04:06:07.690Z,98.36
2023-05-06T04:07:07.652Z,98.27
2023-05-06T04:08:07.660Z,98.16
2023-05-06T04:09:07.623Z,98.16
2023-05-06T04:10:07.674Z,98.16
2023-05-06T04:11:07.627Z,98.16
2023-05-06T04:12:07.631Z,98.36
2023-05-06T04:13:07.726Z,98.36
2023-05-06T04:14:07.836Z,98.27
2023-05-06T04:15:07.751Z,98.27
2023-05-06T04:16:07.623Z,98.16
2023-05-06T04:17:07.567Z,98.16
2023-05-06T04:18:07.660Z,98.06
2023-05-06T04:19:07.558Z,98.06
2023-05-06T04:20:07.516Z,98.16
2023-05-06T04:21:07.513Z,98.06
2023-05-06T04:22:07.515Z,98.06
2023-05-06T04:23:07.528Z,97.86
2023-05-06T04:24:07.489Z,97.86
2023-05-06T04:25:07.529Z,97.75
2023-05-06T04:26:07.484Z,97.45
2023-05-06T04:27:07.457Z,97.65
2023-05-06T04:28:07.442Z,97.65
2023-05-06T04:29:07.448Z,97.65
2023-05-06T04:30:07.436Z,97.55
2023-05-06T04:31:07.395Z,97.45
2023-05-06T04:32:09.374Z,97.45
2023-05-06T04:33:07.443Z,97.34
2023-05-06T04:34:07.385Z,97.20
2023-05-06T04:35:07.541Z,97.09
2023-05-06T04:36:07.369Z,97.00
2023-05-06T04:37:07.352Z,96.89
2023-05-06T04:38:07.334Z,96.69
2023-05-06T04:39:07.340Z,96.69
2023-05-06T04:40:07.351Z,96.69
2023-05-06T04:41:07.312Z,96.69
2023-05-06T04:42:07.353Z,96.59
2023-05-06T04:43:07.273Z,96.38
2023-05-06T04:44:07.281Z,96.23
2023-05-06T04:45:07.402Z,96.14
2023-05-06T04:46:07.298Z,96.18
2023-05-06T04:47:07.237Z,96.14
2023-05-06T04:48:07.268Z,96.03
2023-05-06T04:49:07.260Z,96.03
2023-05-06T04:50:07.218Z,95.93
2023-05-06T04:51:07.245Z,95.93
2023-05-06T04:52:07.211Z,95.73
2023-05-06T04:53:07.191Z,95.62
2023-05-06T04:54:07.207Z,95.32
2023-05-06T04:55:07.166Z,95.21
2023-05-06T04:56:07.189Z,95.12
2023-05-06T04:57:07.152Z,94.91
2023-05-06T04:58:07.148Z,94.81
2023-05-06T04:59:07.169Z,94.91
2023-05-06T05:00:07.311Z,94.91
2023-05-06T05:01:07.206Z,95.01
2023-05-06T05:02:07.150Z,95.12
2023-05-06T05:03:07.142Z,95.21
2023-05-06T05:04:07.096Z,95.01
2023-05-06T05:05:07.265Z,95.07
2023-05-06T05:06:07.070Z,94.87
2023-05-06T05:07:07.055Z,94.81
2023-05-06T05:08:07.035Z,95.42
2023-05-06T05:09:07.016Z,95.93
2023-05-06T05:10:07.027Z,95.93
2023-05-06T05:11:07.035Z,95.73
2023-05-06T05:12:07.014Z,96.03
2023-05-06T05:13:07.053Z,96.23
2023-05-06T05:14:06.977Z,96.23
2023-05-06T05:15:07.058Z,95.93
2023-05-06T05:16:07.026Z,95.89
2023-05-06T05:17:07.118Z,95.98
2023-05-06T05:18:06.961Z,95.78
2023-05-06T05:19:09.075Z,95.68
2023-05-06T05:20:06.929Z,95.89
2023-05-06T05:21:06.890Z,95.78
2023-05-06T05:22:06.899Z,95.78
2023-05-06T05:23:06.921Z,95.89
2023-05-06T05:24:06.888Z,95.68
2023-05-06T05:25:08.148Z,95.43
2023-05-06T05:26:06.828Z,94.57
2023-05-06T05:27:06.860Z,93.86
2023-05-06T05:28:07.112Z,92.90
2023-05-06T05:29:06.865Z,91.33
2023-05-06T05:30:06.803Z,90.92
2023-05-06T05:31:07.942Z,90.37
2023-05-06T05:32:06.816Z,89.56
2023-05-06T05:33:06.908Z,89.91
2023-05-06T05:34:07.121Z,91.38
2023-05-06T05:35:07.220Z,91.68
2023-05-06T05:36:06.758Z,91.58
2023-05-06T05:37:06.770Z,91.48
2023-05-06T05:38:06.715Z,91.68
2023-05-06T05:39:06.713Z,91.58
2023-05-06T05:40:06.706Z,91.27
2023-05-06T05:41:06.695Z,91.58
2023-05-06T05:42:06.682Z,91.88
2023-05-06T05:43:06.700Z,91.68
2023-05-06T05:44:06.757Z,91.38
2023-05-06T05:45:06.725Z,91.07
2023-05-06T05:46:06.708Z,91.27
2023-05-06T05:47:06.626Z,91.78
2023-05-06T05:48:06.712Z,91.99
2023-05-06T05:49:06.604Z,91.88
2023-05-06T05:50:06.609Z,92.14
2023-05-06T05:51:06.625Z,91.74
2023-05-06T05:52:06.607Z,91.53
2023-05-06T05:53:06.565Z,91.19
2023-05-06T05:54:06.627Z,91.94
2023-05-06T05:55:06.657Z,92.14
2023-05-06T05:56:06.531Z,92.65
2023-05-06T05:57:06.515Z,93.16
2023-05-06T05:58:06.508Z,92.65
2023-05-06T05:59:06.506Z,92.35
2023-05-06T06:00:06.481Z,91.80
2023-05-06T06:01:06.516Z,91.69
2023-05-06T06:02:06.478Z,91.69
2023-05-06T06:03:06.571Z,91.29
2023-05-06T06:04:06.584Z,90.84
2023-05-06T06:05:06.432Z,90.44
2023-05-06T06:06:06.436Z,90.33
2023-05-06T06:07:06.433Z,89.92
2023-05-06T06:08:06.406Z,89.83
2023-05-06T06:09:06.417Z,89.83
2023-05-06T06:10:06.379Z,89.48
2023-05-06T06:11:06.425Z,89.48
2023-05-06T06:12:06.353Z,89.78
2023-05-06T06:13:06.410Z,89.48
2023-05-06T06:14:06.336Z,88.01
2023-05-06T06:15:06.317Z,88.36
2023-05-06T06:16:06.381Z,88.42
2023-05-06T06:17:06.320Z,87.71
2023-05-06T06:18:06.351Z,87.71
2023-05-06T06:19:06.289Z,87.10
2023-05-06T06:20:06.308Z,86.25
2023-05-06T06:21:06.325Z,85.64
2023-05-06T06:22:06.274Z,85.60
2023-05-06T06:23:06.288Z,84.58
2023-05-06T06:24:06.234Z,83.77
2023-05-06T06:25:06.269Z,83.98
2023-05-06T06:26:06.221Z,83.63
2023-05-06T06:27:06.247Z,83.83
2023-05-06T06:28:06.190Z,83.03
2023-05-06T06:29:06.222Z,82.38
2023-05-06T06:30:06.162Z,82.62
2023-05-06T06:31:06.179Z,82.82
2023-05-06T06:32:06.239Z,82.68
2023-05-06T06:33:06.209Z,81.46
2023-05-06T06:34:06.145Z,81.43
2023-05-06T06:35:06.138Z,81.02
2023-05-06T06:36:06.149Z,80.11
2023-05-06T06:37:07.957Z,80.11
2023-05-06T06:38:06.329Z,80.11
2023-05-06T06:39:06.079Z,81.06
2023-05-06T06:40:06.072Z,81.81
2023-05-06T06:41:06.077Z,82.31
2023-05-06T06:42:06.066Z,82.52
2023-05-06T06:43:06.068Z,82.28
2023-05-06T06:44:06.041Z,81.32
2023-05-06T06:45:06.033Z,79.40
2023-05-06T06:46:06.046Z,79.10
2023-05-06T06:47:06.016Z,78.96
2023-05-06T06:48:06.025Z,78.45
2023-05-06T06:49:06.005Z,77.84
2023-05-06T06:50:05.985Z,78.39
2023-05-06T06:51:05.959Z,78.15
2023-05-06T06:52:06.004Z,78.69
2023-05-06T06:53:06.522Z,78.96
2023-05-06T06:54:05.987Z,78.55
2023-05-06T06:55:05.936Z,78.31
2023-05-06T06:56:05.948Z,77.91
2023-05-06T06:57:05.919Z,77.37
2023-05-06T06:58:05.886Z,77.57
2023-05-06T06:59:05.907Z,77.77
2023-05-06T07:00:05.883Z,77.17
2023-05-06T07:01:05.947Z,76.70
2023-05-06T07:02:05.959Z,77.00
2023-05-06T07:03:05.867Z,77.20
2023-05-06T07:04:07.217Z,77.54
2023-05-06T07:05:05.832Z,78.01
2023-05-06T07:06:05.805Z,77.71
2023-05-06T07:07:05.798Z,77.84
2023-05-06T07:08:05.837Z,77.50
2023-05-06T07:09:05.767Z,78.01
2023-05-06T07:10:05.846Z,77.40
2023-05-06T07:11:05.819Z,77.71
2023-05-06T07:12:05.748Z,77.57
2023-05-06T07:13:05.859Z,76.97
2023-05-06T07:14:05.795Z,76.97
2023-05-06T07:15:05.711Z,76.62
2023-05-06T07:16:05.711Z,76.02
2023-05-06T07:17:05.779Z,76.42
2023-05-06T07:18:05.788Z,76.62
2023-05-06T07:19:05.698Z,76.62
2023-05-06T07:20:05.704Z,76.66
2023-05-06T07:21:05.659Z,76.66
2023-05-06T07:22:05.641Z,76.35
2023-05-06T07:23:05.663Z,76.32
2023-05-06T07:24:05.630Z,75.21
2023-05-06T07:25:05.629Z,74.77
2023-05-06T07:26:05.621Z,74.19
2023-05-06T07:27:05.602Z,74.30
2023-05-06T07:28:05.607Z,74.87
2023-05-06T07:29:05.598Z,74.57
2023-05-06T07:30:05.616Z,74.66
2023-05-06T07:31:05.634Z,75.07
2023-05-06T07:32:05.544Z,74.63
2023-05-06T07:33:05.584Z,73.93
2023-05-06T07:34:05.501Z,73.72
2023-05-06T07:35:05.524Z,73.08
2023-05-06T07:36:05.507Z,73.18
2023-05-06T07:37:05.492Z,72.24
2023-05-06T07:38:05.475Z,72.04
2023-05-06T07:39:05.481Z,72.17
2023-05-06T07:40:05.448Z,72.88
2023-05-06T07:41:05.443Z,72.58
2023-05-06T07:42:05.459Z,72.48
2023-05-06T07:43:05.462Z,72.54
2023-05-06T07:44:05.790Z,72.54
2023-05-06T07:45:05.453Z,72.11
2023-05-06T07:46:05.489Z,70.86
2023-05-06T07:47:05.476Z,71.30
2023-05-06T07:48:05.414Z,71.73
2023-05-06T07:49:05.428Z,72.14
2023-05-06T07:50:05.827Z,72.75
2023-05-06T07:51:05.369Z,72.44
2023-05-06T07:52:05.311Z,71.70
2023-05-06T07:53:05.315Z,71.60
2023-05-06T07:54:05.304Z,72.14
2023-05-06T07:55:05.322Z,73.49
2023-05-06T07:56:05.341Z,73.58
2023-05-06T07:57:05.290Z,73.35
2023-05-06T07:58:05.284Z,72.85
2023-05-06T07:59:05.303Z,72.75
2023-05-06T08:00:05.300Z,72.54
2023-05-06T08:01:05.250Z,72.64
2023-05-06T08:02:05.526Z,72.85
2023-05-06T08:03:05.366Z,72.00
2023-05-06T08:04:05.279Z,71.80
2023-05-06T08:05:05.205Z,72.38
2023-05-06T08:06:05.164Z,72.78
2023-05-06T08:07:05.207Z,72.88
2023-05-06T08:08:05.172Z,72.34
2023-05-06T08:09:05.259Z,71.30
2023-05-06T08:10:05.138Z,70.36
2023-05-06T08:11:05.159Z,69.01
2023-05-06T08:12:05.140Z,68.31
2023-05-06T08:13:05.352Z,68.01
2023-05-06T08:14:05.101Z,67.30
2023-05-06T08:15:05.155Z,67.50
2023-05-06T08:16:05.167Z,67.00
2023-05-06T08:17:05.343Z,67.43
2023-05-06T08:18:20.972Z,67.77
2023-05-06T08:19:05.048Z,68.37
2023-05-06T08:20:05.128Z,68.04
2023-05-06T08:21:05.086Z,68.14
2023-05-06T08:22:05.021Z,67.91
2023-05-06T08:23:05.012Z,67.50
2023-05-06T08:24:05.848Z,68.14
2023-05-06T08:25:05.177Z,67.94
2023-05-06T08:26:04.979Z,68.81
2023-05-06T08:27:04.997Z,67.91
2023-05-06T08:28:06.023Z,66.77
2023-05-06T08:29:04.971Z,67.37
2023-05-06T08:30:04.937Z,65.76
2023-05-06T08:31:04.948Z,65.19
2023-05-06T08:32:04.978Z,63.57
2023-05-06T08:33:05.289Z,64.18
2023-05-06T08:34:05.060Z,65.26
2023-05-06T08:35:04.928Z,66.56
2023-05-06T08:36:04.882Z,67.17
2023-05-06T08:37:04.899Z,66.70
2023-05-06T08:38:05.007Z,67.03
2023-05-06T08:39:05.173Z,67.54
2023-05-06T08:40:04.942Z,67.23
2023-05-06T08:41:05.492Z,66.39
2023-05-06T08:42:05.126Z,66.09
2023-05-06T08:43:04.824Z,65.26
2023-05-06T08:44:04.831Z,64.28
2023-05-06T08:45:04.821Z,64.89
2023-05-06T08:46:04.858Z,64.89
2023-05-06T08:47:05.139Z,64.89
2023-05-06T08:48:04.805Z,64.86
2023-05-06T08:49:04.958Z,63.71
2023-05-06T08:50:04.715Z,64.45
2023-05-06T08:51:04.830Z,64.35
2023-05-06T08:52:04.711Z,63.92
2023-05-06T08:53:04.718Z,63.31
2023-05-06T08:54:04.744Z,62.91
2023-05-06T08:55:04.685Z,63.01
2023-05-06T08:56:04.677Z,62.98
2023-05-06T08:57:04.651Z,62.88
2023-05-06T08:58:04.632Z,61.77
2023-05-06T08:59:04.658Z,62.10
2023-05-06T09:00:04.856Z,62.78
2023-05-06T09:01:04.657Z,62.30
2023-05-06T09:02:05.724Z,61.98
2023-05-06T09:03:04.743Z,62.01
2023-05-06T09:04:04.572Z,62.18
2023-05-06T09:05:04.591Z,62.05
2023-05-06T09:06:04.542Z,61.94
2023-05-06T09:07:05.179Z,61.24
2023-05-06T09:08:04.522Z,61.31
2023-05-06T09:09:04.584Z,60.51
2023-05-06T09:10:04.509Z,60.11
2023-05-06T09:11:05.564Z,60.94
2023-05-06T09:12:04.515Z,61.54
2023-05-06T09:13:04.581Z,61.34
2023-05-06T09:14:05.155Z,61.47
2023-05-06T09:15:04.470Z,62.45
2023-05-06T09:16:04.472Z,62.15
2023-05-06T09:17:04.456Z,61.51
2023-05-06T09:18:04.470Z,60.71
2023-05-06T09:19:04.526Z,61.49
2023-05-06T09:20:04.417Z,60.15
2023-05-06T09:21:05.382Z,59.42
2023-05-06T09:22:04.384Z,58.18
2023-05-06T09:23:04.417Z,57.68
2023-05-06T09:24:04.360Z,57.06
2023-05-06T09:25:04.374Z,57.28
2023-05-06T09:26:04.399Z,57.39
2023-05-06T09:27:05.134Z,57.01
2023-05-06T09:28:04.350Z,57.74
2023-05-06T09:29:04.319Z,57.41
2023-05-06T09:30:05.221Z,57.01
2023-05-06T09:31:04.348Z,57.14
2023-05-06T09:32:04.296Z,56.61
2023-05-06T09:33:05.150Z,55.38
2023-05-06T09:34:04.268Z,56.28
2023-05-06T09:35:04.369Z,55.43
2023-05-06T09:36:04.238Z,54.80
2023-05-06T09:37:04.251Z,55.63
2023-05-06T09:38:06.959Z,56.43
2023-05-06T09:39:04.223Z,56.05
2023-05-06T09:40:04.203Z,56.38
2023-05-06T09:41:04.259Z,56.78
2023-05-06T09:42:04.173Z,56.68
2023-05-06T09:43:04.179Z,57.51
2023-05-06T09:44:04.177Z,57.74
2023-05-06T09:45:04.158Z,56.51
2023-05-06T09:46:04.198Z,55.68
2023-05-06T09:47:04.140Z,55.58
2023-05-06T09:48:04.214Z,56.38
2023-05-06T09:49:04.178Z,56.08
2023-05-06T09:50:04.108Z,56.28
2023-05-06T09:51:04.132Z,55.88
2023-05-06T09:52:04.167Z,56.26
2023-05-06T09:53:04.070Z,55.28
2023-05-06T09:54:04.825Z,56.30
2023-05-06T09:55:04.047Z,56.61
2023-05-06T09:56:04.051Z,57.34
2023-05-06T09:57:04.033Z,58.07
2023-05-06T09:58:04.027Z,57.79
2023-05-06T09:59:04.058Z,57.92
2023-05-06T10:00:03.993Z,57.42
2023-05-06T10:01:04.013Z,56.92
2023-05-06T10:02:04.038Z,57.42
2023-05-06T10:03:04.052Z,57.52
2023-05-06T10:04:04.166Z,57.85
2023-05-06T10:05:04.144Z,58.05
2023-05-06T10:06:03.946Z,57.75
2023-05-06T10:07:03.945Z,57.95
2023-05-06T10:08:03.930Z,57.04
2023-05-06T10:09:03.925Z,56.09
2023-05-06T10:10:03.894Z,56.03
2023-05-06T10:11:05.134Z,55.63
2023-05-06T10:12:03.965Z,56.74
2023-05-06T10:13:03.956Z,54.90
2023-05-06T10:14:03.946Z,53.80
2023-05-06T10:15:03.851Z,54.00
2023-05-06T10:16:03.854Z,53.37
2023-05-06T10:17:03.837Z,53.12
2023-05-06T10:18:03.854Z,52.55
2023-05-06T10:19:03.850Z,53.95
2023-05-06T10:20:03.802Z,54.85
2023-05-06T10:21:03.806Z,54.43
2023-05-06T10:22:05.594Z,54.90
2023-05-06T10:23:03.768Z,53.22
2023-05-06T10:24:03.766Z,51.92
2023-05-06T10:25:04.676Z,52.01
2023-05-06T10:26:03.732Z,51.94
2023-05-06T10:27:03.725Z,52.24
2023-05-06T10:28:05.566Z,52.04
2023-05-06T10:29:03.944Z,51.84
2023-05-06T10:30:03.748Z,52.42
2023-05-06T10:31:03.696Z,51.01
2023-05-06T10:32:03.695Z,51.12
2023-05-06T10:33:03.706Z,51.84
2023-05-06T10:34:03.686Z,51.64
2023-05-06T10:35:03.633Z,51.46
2023-05-06T10:36:03.644Z,51.62
2023-05-06T10:37:04.316Z,50.81
2023-05-06T10:38:03.641Z,51.84
2023-05-06T10:39:03.704Z,52.12
2023-05-06T10:40:03.601Z,51.89
2023-05-06T10:41:03.591Z,52.22
2023-05-06T10:42:03.569Z,52.69
2023-05-06T10:43:03.549Z,52.49
2023-05-06T10:44:03.559Z,52.49
2023-05-06T10:45:03.612Z,52.04
2023-05-06T10:46:03.551Z,51.25
2023-05-06T10:47:03.518Z,50.96
2023-05-06T10:48:03.569Z,51.19
2023-05-06T10:49:03.487Z,51.79
2023-05-06T10:50:03.592Z,52.52
2023-05-06T10:51:03.505Z,52.09
2023-05-06T10:52:03.484Z,52.59
2023-05-06T10:53:03.493Z,52.39
2023-05-06T10:54:03.438Z,52.49
2023-05-06T10:55:03.436Z,51.67
2023-05-06T10:56:03.429Z,51.02
2023-05-06T10:57:03.415Z,50.29
2023-05-06T10:58:03.427Z,50.37
2023-05-06T10:59:03.431Z,50.27
2023-05-06T11:00:03.376Z,48.07
2023-05-06T11:01:04.232Z,49.27
2023-05-06T11:02:03.421Z,48.97
2023-05-06T11:03:03.495Z,49.07
2023-05-06T11:04:03.359Z,49.72
2023-05-06T11:05:03.404Z,50.84
2023-05-06T11:06:03.326Z,50.54
2023-05-06T11:07:03.325Z,50.24
2023-05-06T11:08:03.307Z,50.44
2023-05-06T11:09:03.309Z,50.64
2023-05-06T11:10:03.350Z,50.20
2023-05-06T11:11:03.293Z,48.99
2023-05-06T11:12:03.256Z,49.67
2023-05-06T11:13:03.322Z,49.85
2023-05-06T11:14:03.255Z,49.82
2023-05-06T11:15:03.241Z,48.94
2023-05-06T11:16:03.225Z,48.52
2023-05-06T11:17:03.225Z,49.24
2023-05-06T11:18:03.218Z,49.41
2023-05-06T11:19:03.198Z,49.54
2023-05-06T11:20:03.193Z,50.24
2023-05-06T11:21:03.567Z,50.72
2023-05-06T11:22:03.237Z,48.69
2023-05-06T11:23:03.164Z,49.15
2023-05-06T11:24:03.139Z,49.59
2023-05-06T11:25:03.112Z,49.59
2023-05-06T11:26:03.135Z,50.39
2023-05-06T11:27:03.108Z,48.60
2023-05-06T11:28:03.102Z,48.60
2023-05-06T11:29:03.113Z,48.82
2023-05-06T11:30:03.072Z,48.79
2023-05-06T11:31:03.121Z,49.97
2023-05-06T11:32:03.063Z,49.40
2023-05-06T11:33:05.190Z,49.27
2023-05-06T11:34:03.082Z,48.14
2023-05-06T11:35:03.022Z,47.27
2023-05-06T11:36:03.014Z,48.52
2023-05-06T11:37:03.038Z,49.99
2023-05-06T11:38:03.012Z,47.79
2023-05-06T11:39:05.118Z,48.17
2023-05-06T11:40:03.021Z,47.53
2023-05-06T11:41:02.954Z,47.10
2023-05-06T11:42:03.018Z,46.61
2023-05-06T11:43:02.944Z,45.78
2023-05-06T11:44:02.950Z,45.56
2023-05-06T11:45:02.925Z,46.06
2023-05-06T11:46:02.990Z,45.24
2023-05-06T11:47:02.990Z,44.74
2023-05-06T11:48:02.947Z,44.57
2023-05-06T11:49:02.876Z,44.87
2023-05-06T11:50:02.880Z,45.68
2023-05-06T11:51:02.907Z,46.61
2023-05-06T11:52:03.093Z,47.03
2023-05-06T11:53:02.833Z,47.47
2023-05-06T11:54:03.688Z,48.29
2023-05-06T11:55:02.901Z,48.87
2023-05-06T11:56:02.853Z,48.19
2023-05-06T11:57:02.820Z,47.61
2023-05-06T11:58:02.852Z,48.32
2023-05-06T11:59:02.811Z,47.42
2023-05-06T12:00:02.770Z,46.69
2023-05-06T12:01:02.780Z,46.99
2023-05-06T12:02:02.857Z,47.37
2023-05-06T12:03:02.805Z,48.35
2023-05-06T12:04:03.044Z,47.33
2023-05-06T12:05:02.794Z,46.53
2023-05-06T12:06:02.703Z,47.97
2023-05-06T12:07:02.705Z,48.17
2023-05-06T12:08:04.711Z,48.37
2023-05-06T12:09:02.694Z,48.77
2023-05-06T12:10:02.685Z,47.67
2023-05-06T12:11:02.715Z,47.99
2023-05-06T12:12:02.650Z,48.60
2023-05-06T12:13:02.672Z,48.79
2023-05-06T12:14:02.653Z,48.05
2023-05-06T12:15:02.642Z,47.71
2023-05-06T12:16:02.638Z,46.92
2023-05-06T12:17:02.590Z,47.63
2023-05-06T12:18:02.627Z,47.33
2023-05-06T12:19:02.657Z,47.22
2023-05-06T12:20:02.600Z,47.42
2023-05-06T12:21:02.600Z,47.05
2023-05-06T12:22:02.557Z,47.65
2023-05-06T12:23:02.535Z,47.35
2023-05-06T12:24:02.589Z,47.13
2023-05-06T12:25:02.525Z,46.33
2023-05-06T12:26:02.514Z,46.20
2023-05-06T12:27:02.533Z,46.15
2023-05-06T12:28:02.517Z,46.57
2023-05-06T12:29:02.487Z,47.07
2023-05-06T12:30:02.485Z,47.37
2023-05-06T12:31:02.511Z,47.65
2023-05-06T12:32:02.590Z,46.83
2023-05-06T12:33:02.572Z,46.31
2023-05-06T12:34:02.473Z,46.31
2023-05-06T12:35:02.500Z,46.41
2023-05-06T12:36:02.403Z,45.71
2023-05-06T12:37:02.394Z,46.01
2023-05-06T12:38:02.404Z,45.51
2023-05-06T12:39:02.433Z,46.11
2023-05-06T12:40:02.402Z,45.39
2023-05-06T12:41:02.341Z,45.06
2023-05-06T12:42:02.354Z,45.31
2023-05-06T12:43:02.342Z,44.31
2023-05-06T12:44:02.339Z,44.19
2023-05-06T12:45:02.329Z,44.38
2023-05-06T12:46:02.459Z,44.38
2023-05-06T12:47:02.304Z,44.93
2023-05-06T12:48:02.408Z,44.35
2023-05-06T12:49:02.280Z,44.33
2023-05-06T12:50:03.479Z,44.19
2023-05-06T12:51:02.507Z,44.46
2023-05-06T12:52:02.276Z,43.35